sensor_id;sensor_type;location;lat;lon;timestamp;P1;durP1;ratioP1;P2;durP2;ratioP2
16246;SDS011;8231;50.866;7.944;2024-02-14T00:00:24;7.18;;;2.97;;
16246;SDS011;8231;50.866;7.944;2024-02-14T00:02:52;5.95;;;3.15;;
16246;SDS011;8231;50.866;7.944;2024-02-14T00:05:21;5.68;;;2.78;;
16246;SDS011;8231;50.866;7.944;2024-02-14T00:07:49;3.25;;;2.33;;
16246;SDS011;8231;50.866;7.944;2024-02-14T00:10:19;4.28;;;2.15;;
16246;SDS011;8231;50.866;7.944;2024-02-14T00:12:47;2.78;;;2.08;;
16246;SDS011;8231;50.866;7.944;2024-02-14T00:15:15;3.60;;;2.90;;
16246;SDS011;8231;50.866;7.944;2024-02-14T00:17:44;5.10;;;2.10;;
16246;SDS011;8231;50.866;7.944;2024-02-14T00:20:12;3.10;;;2.17;;
16246;SDS011;8231;50.866;7.944;2024-02-14T00:22:49;4.82;;;2.65;;
16246;SDS011;8231;50.866;7.944;2024-02-14T00:25:19;3.75;;;2.38;;
16246;SDS011;8231;50.866;7.944;2024-02-14T00:27:48;3.20;;;2.00;;
16246;SDS011;8231;50.866;7.944;2024-02-14T00:30:16;5.47;;;2.13;;
16246;SDS011;8231;50.866;7.944;2024-02-14T00:33:05;3.67;;;1.98;;
16246;SDS011;8231;50.866;7.944;2024-02-14T00:35:34;2.35;;;2.15;;
16246;SDS011;8231;50.866;7.944;2024-02-14T00:38:03;5.72;;;2.08;;
16246;SDS011;8231;50.866;7.944;2024-02-14T00:40:33;3.78;;;2.55;;
16246;SDS011;8231;50.866;7.944;2024-02-14T00:43:01;3.83;;;1.70;;
16246;SDS011;8231;50.866;7.944;2024-02-14T00:45:29;2.90;;;2.00;;
16246;SDS011;8231;50.866;7.944;2024-02-14T00:47:57;3.28;;;2.08;;
16246;SDS011;8231;50.866;7.944;2024-02-14T00:50:26;2.33;;;1.90;;
16246;SDS011;8231;50.866;7.944;2024-02-14T00:52:54;4.47;;;2.20;;
16246;SDS011;8231;50.866;7.944;2024-02-14T00:55:22;5.80;;;2.17;;
16246;SDS011;8231;50.866;7.944;2024-02-14T00:57:51;2.78;;;2.20;;
16246;SDS011;8231;50.866;7.944;2024-02-14T01:00:21;4.47;;;2.35;;
16246;SDS011;8231;50.866;7.944;2024-02-14T01:02:49;3.05;;;2.05;;
16246;SDS011;8231;50.866;7.944;2024-02-14T01:05:18;3.42;;;1.95;;
16246;SDS011;8231;50.866;7.944;2024-02-14T01:07:46;4.03;;;1.90;;
16246;SDS011;8231;50.866;7.944;2024-02-14T01:10:14;2.10;;;1.60;;
16246;SDS011;8231;50.866;7.944;2024-02-14T01:12:42;2.45;;;1.70;;
16246;SDS011;8231;50.866;7.944;2024-02-14T01:15:12;2.00;;;1.50;;
16246;SDS011;8231;50.866;7.944;2024-02-14T01:17:40;3.40;;;2.20;;
16246;SDS011;8231;50.866;7.944;2024-02-14T01:20:09;3.47;;;2.42;;
16246;SDS011;8231;50.866;7.944;2024-02-14T01:22:38;3.13;;;1.95;;
16246;SDS011;8231;50.866;7.944;2024-02-14T01:25:13;2.95;;;2.33;;
16246;SDS011;8231;50.866;7.944;2024-02-14T01:27:41;3.60;;;2.10;;
16246;SDS011;8231;50.866;7.944;2024-02-14T01:30:11;2.70;;;2.05;;
16246;SDS011;8231;50.866;7.944;2024-02-14T01:32:41;2.95;;;1.63;;
16246;SDS011;8231;50.866;7.944;2024-02-14T01:35:09;2.75;;;2.15;;
16246;SDS011;8231;50.866;7.944;2024-02-14T01:37:37;2.42;;;1.83;;
16246;SDS011;8231;50.866;7.944;2024-02-14T01:40:06;2.30;;;1.70;;
16246;SDS011;8231;50.866;7.944;2024-02-14T01:42:52;4.15;;;1.95;;
16246;SDS011;8231;50.866;7.944;2024-02-14T01:45:21;4.25;;;1.83;;
16246;SDS011;8231;50.866;7.944;2024-02-14T01:47:58;2.35;;;1.73;;
16246;SDS011;8231;50.866;7.944;2024-02-14T01:50:28;3.72;;;1.90;;
16246;SDS011;8231;50.866;7.944;2024-02-14T01:52:58;3.25;;;1.65;;
16246;SDS011;8231;50.866;7.944;2024-02-14T01:55:27;3.53;;;1.83;;
16246;SDS011;8231;50.866;7.944;2024-02-14T01:57:56;2.97;;;1.83;;
16246;SDS011;8231;50.866;7.944;2024-02-14T02:00:26;4.60;;;2.17;;
16246;SDS011;8231;50.866;7.944;2024-02-14T02:02:55;2.80;;;1.73;;
16246;SDS011;8231;50.866;7.944;2024-02-14T02:05:24;4.55;;;1.85;;
16246;SDS011;8231;50.866;7.944;2024-02-14T02:07:52;3.05;;;1.85;;
16246;SDS011;8231;50.866;7.944;2024-02-14T02:10:20;2.55;;;2.08;;
16246;SDS011;8231;50.866;7.944;2024-02-14T02:13:12;2.53;;;1.95;;
16246;SDS011;8231;50.866;7.944;2024-02-14T02:16:03;1.83;;;1.50;;
16246;SDS011;8231;50.866;7.944;2024-02-14T02:18:52;2.75;;;1.77;;
16246;SDS011;8231;50.866;7.944;2024-02-14T02:21:41;3.67;;;1.67;;
16246;SDS011;8231;50.866;7.944;2024-02-14T02:24:11;3.85;;;1.88;;
16246;SDS011;8231;50.866;7.944;2024-02-14T02:26:40;3.25;;;1.67;;
16246;SDS011;8231;50.866;7.944;2024-02-14T02:29:28;3.35;;;1.88;;
16246;SDS011;8231;50.866;7.944;2024-02-14T02:31:57;2.10;;;1.60;;
16246;SDS011;8231;50.866;7.944;2024-02-14T02:34:25;4.15;;;1.70;;
16246;SDS011;8231;50.866;7.944;2024-02-14T02:36:54;2.72;;;1.85;;
16246;SDS011;8231;50.866;7.944;2024-02-14T02:39:42;3.97;;;1.67;;
16246;SDS011;8231;50.866;7.944;2024-02-14T02:42:30;4.75;;;2.03;;
16246;SDS011;8231;50.866;7.944;2024-02-14T02:45:19;2.67;;;2.08;;
16246;SDS011;8231;50.866;7.944;2024-02-14T02:48:07;2.10;;;1.73;;
16246;SDS011;8231;50.866;7.944;2024-02-14T02:50:53;3.28;;;1.80;;
16246;SDS011;8231;50.866;7.944;2024-02-14T02:53:40;3.22;;;1.55;;
16246;SDS011;8231;50.866;7.944;2024-02-14T02:56:30;3.10;;;2.17;;
16246;SDS011;8231;50.866;7.944;2024-02-14T02:59:00;5.15;;;1.95;;
16246;SDS011;8231;50.866;7.944;2024-02-14T03:01:34;3.53;;;1.73;;
16246;SDS011;8231;50.866;7.944;2024-02-14T03:04:23;4.60;;;1.60;;
16246;SDS011;8231;50.866;7.944;2024-02-14T03:07:31;2.05;;;1.60;;
16246;SDS011;8231;50.866;7.944;2024-02-14T03:10:19;2.40;;;1.40;;
16246;SDS011;8231;50.866;7.944;2024-02-14T03:13:09;2.20;;;1.80;;
16246;SDS011;8231;50.866;7.944;2024-02-14T03:15:58;2.15;;;1.77;;
16246;SDS011;8231;50.866;7.944;2024-02-14T03:18:26;2.65;;;1.80;;
16246;SDS011;8231;50.866;7.944;2024-02-14T03:20:54;2.10;;;1.88;;
16246;SDS011;8231;50.866;7.944;2024-02-14T03:23:23;5.95;;;1.75;;
16246;SDS011;8231;50.866;7.944;2024-02-14T03:25:51;2.97;;;1.80;;
16246;SDS011;8231;50.866;7.944;2024-02-14T03:28:20;2.70;;;1.58;;
16246;SDS011;8231;50.866;7.944;2024-02-14T03:30:48;4.32;;;1.75;;
16246;SDS011;8231;50.866;7.944;2024-02-14T03:33:16;2.75;;;1.75;;
16246;SDS011;8231;50.866;7.944;2024-02-14T03:35:46;2.70;;;1.55;;
16246;SDS011;8231;50.866;7.944;2024-02-14T03:38:23;1.90;;;1.55;;
16246;SDS011;8231;50.866;7.944;2024-02-14T03:40:52;2.90;;;1.75;;
16246;SDS011;8231;50.866;7.944;2024-02-14T03:43:22;3.80;;;2.00;;
16246;SDS011;8231;50.866;7.944;2024-02-14T03:45:50;3.75;;;2.00;;
16246;SDS011;8231;50.866;7.944;2024-02-14T03:48:19;3.55;;;1.90;;
16246;SDS011;8231;50.866;7.944;2024-02-14T03:50:49;4.13;;;1.85;;
16246;SDS011;8231;50.866;7.944;2024-02-14T03:53:17;2.72;;;1.90;;
16246;SDS011;8231;50.866;7.944;2024-02-14T03:55:45;3.42;;;2.40;;
16246;SDS011;8231;50.866;7.944;2024-02-14T03:58:13;3.05;;;1.92;;
16246;SDS011;8231;50.866;7.944;2024-02-14T04:00:44;4.78;;;1.77;;
16246;SDS011;8231;50.866;7.944;2024-02-14T04:03:15;2.58;;;2.22;;
16246;SDS011;8231;50.866;7.944;2024-02-14T04:05:43;2.10;;;1.50;;
16246;SDS011;8231;50.866;7.944;2024-02-14T04:08:14;3.47;;;1.83;;
16246;SDS011;8231;50.866;7.944;2024-02-14T04:10:42;5.63;;;1.95;;
16246;SDS011;8231;50.866;7.944;2024-02-14T04:13:10;4.55;;;2.15;;
16246;SDS011;8231;50.866;7.944;2024-02-14T04:15:39;2.55;;;2.00;;
16246;SDS011;8231;50.866;7.944;2024-02-14T04:18:13;3.08;;;2.17;;
16246;SDS011;8231;50.866;7.944;2024-02-14T04:20:44;2.78;;;2.15;;
16246;SDS011;8231;50.866;7.944;2024-02-14T04:23:13;4.38;;;2.17;;
16246;SDS011;8231;50.866;7.944;2024-02-14T04:25:41;2.40;;;2.20;;
16246;SDS011;8231;50.866;7.944;2024-02-14T04:28:10;5.70;;;2.30;;
16246;SDS011;8231;50.866;7.944;2024-02-14T04:30:38;2.22;;;2.00;;
16246;SDS011;8231;50.866;7.944;2024-02-14T04:33:15;3.63;;;2.20;;
16246;SDS011;8231;50.866;7.944;2024-02-14T04:35:45;4.22;;;2.45;;
16246;SDS011;8231;50.866;7.944;2024-02-14T04:38:13;3.03;;;2.50;;
16246;SDS011;8231;50.866;7.944;2024-02-14T04:40:42;6.47;;;2.50;;
16246;SDS011;8231;50.866;7.944;2024-02-14T04:43:10;4.40;;;2.00;;
16246;SDS011;8231;50.866;7.944;2024-02-14T04:45:38;3.28;;;2.33;;
16246;SDS011;8231;50.866;7.944;2024-02-14T04:48:08;3.28;;;2.38;;
16246;SDS011;8231;50.866;7.944;2024-02-14T04:50:38;2.60;;;2.17;;
16246;SDS011;8231;50.866;7.944;2024-02-14T04:53:06;4.03;;;2.40;;
16246;SDS011;8231;50.866;7.944;2024-02-14T04:55:35;3.45;;;2.20;;
16246;SDS011;8231;50.866;7.944;2024-02-14T04:58:03;4.15;;;2.92;;
16246;SDS011;8231;50.866;7.944;2024-02-14T05:00:32;3.53;;;2.40;;
16246;SDS011;8231;50.866;7.944;2024-02-14T05:03:00;3.47;;;2.50;;
16246;SDS011;8231;50.866;7.944;2024-02-14T05:05:30;4.20;;;3.15;;
16246;SDS011;8231;50.866;7.944;2024-02-14T05:08:02;2.67;;;1.90;;
16246;SDS011;8231;50.866;7.944;2024-02-14T05:10:30;3.10;;;2.67;;
16246;SDS011;8231;50.866;7.944;2024-02-14T05:12:59;3.53;;;2.50;;
16246;SDS011;8231;50.866;7.944;2024-02-14T05:15:27;4.35;;;2.78;;
16246;SDS011;8231;50.866;7.944;2024-02-14T05:17:55;3.80;;;2.85;;
16246;SDS011;8231;50.866;7.944;2024-02-14T05:20:24;3.53;;;2.85;;
16246;SDS011;8231;50.866;7.944;2024-02-14T05:22:52;2.88;;;2.58;;
16246;SDS011;8231;50.866;7.944;2024-02-14T05:25:22;2.85;;;2.65;;
16246;SDS011;8231;50.866;7.944;2024-02-14T05:27:57;3.35;;;2.47;;
16246;SDS011;8231;50.866;7.944;2024-02-14T05:30:26;4.95;;;2.70;;
16246;SDS011;8231;50.866;7.944;2024-02-14T05:33:03;4.32;;;2.60;;
16246;SDS011;8231;50.866;7.944;2024-02-14T05:35:32;6.05;;;3.10;;
16246;SDS011;8231;50.866;7.944;2024-02-14T05:38:00;2.78;;;2.50;;
16246;SDS011;8231;50.866;7.944;2024-02-14T05:40:29;3.25;;;2.60;;
16246;SDS011;8231;50.866;7.944;2024-02-14T05:42:58;3.15;;;2.83;;
16246;SDS011;8231;50.866;7.944;2024-02-14T05:45:26;4.28;;;2.60;;
16246;SDS011;8231;50.866;7.944;2024-02-14T05:47:54;3.75;;;2.70;;
16246;SDS011;8231;50.866;7.944;2024-02-14T05:50:22;3.22;;;2.88;;
16246;SDS011;8231;50.866;7.944;2024-02-14T05:52:50;2.85;;;2.25;;
16246;SDS011;8231;50.866;7.944;2024-02-14T05:55:19;7.40;;;3.22;;
16246;SDS011;8231;50.866;7.944;2024-02-14T05:57:51;4.78;;;2.47;;
16246;SDS011;8231;50.866;7.944;2024-02-14T06:00:20;5.00;;;2.90;;
16246;SDS011;8231;50.866;7.944;2024-02-14T06:02:54;3.70;;;2.72;;
16246;SDS011;8231;50.866;7.944;2024-02-14T06:05:22;3.95;;;2.85;;
16246;SDS011;8231;50.866;7.944;2024-02-14T06:07:50;2.75;;;2.55;;
16246;SDS011;8231;50.866;7.944;2024-02-14T06:10:18;3.22;;;2.60;;
16246;SDS011;8231;50.866;7.944;2024-02-14T06:12:47;5.55;;;2.70;;
16246;SDS011;8231;50.866;7.944;2024-02-14T06:15:17;4.50;;;3.53;;
16246;SDS011;8231;50.866;7.944;2024-02-14T06:17:45;3.03;;;2.72;;
16246;SDS011;8231;50.866;7.944;2024-02-14T06:20:14;2.90;;;2.60;;
16246;SDS011;8231;50.866;7.944;2024-02-14T06:22:43;2.90;;;2.55;;
16246;SDS011;8231;50.866;7.944;2024-02-14T06:25:22;2.65;;;2.45;;
16246;SDS011;8231;50.866;7.944;2024-02-14T06:27:58;2.88;;;2.60;;
16246;SDS011;8231;50.866;7.944;2024-02-14T06:30:27;4.32;;;2.78;;
16246;SDS011;8231;50.866;7.944;2024-02-14T06:32:59;5.10;;;3.17;;
16246;SDS011;8231;50.866;7.944;2024-02-14T06:35:29;3.75;;;3.30;;
16246;SDS011;8231;50.866;7.944;2024-02-14T06:37:58;4.28;;;3.25;;
16246;SDS011;8231;50.866;7.944;2024-02-14T06:40:32;5.85;;;2.45;;
16246;SDS011;8231;50.866;7.944;2024-02-14T06:43:00;3.67;;;3.33;;
16246;SDS011;8231;50.866;7.944;2024-02-14T06:45:31;3.53;;;2.80;;
16246;SDS011;8231;50.866;7.944;2024-02-14T06:48:18;6.47;;;3.50;;
16246;SDS011;8231;50.866;7.944;2024-02-14T06:50:50;6.05;;;3.60;;
16246;SDS011;8231;50.866;7.944;2024-02-14T06:53:19;5.75;;;4.20;;
16246;SDS011;8231;50.866;7.944;2024-02-14T06:55:47;3.33;;;3.08;;
16246;SDS011;8231;50.866;7.944;2024-02-14T06:58:15;3.70;;;3.10;;
16246;SDS011;8231;50.866;7.944;2024-02-14T07:00:44;3.75;;;3.33;;
16246;SDS011;8231;50.866;7.944;2024-02-14T07:03:13;4.32;;;3.92;;
16246;SDS011;8231;50.866;7.944;2024-02-14T07:05:41;3.55;;;3.25;;
16246;SDS011;8231;50.866;7.944;2024-02-14T07:08:10;4.30;;;3.90;;
16246;SDS011;8231;50.866;7.944;2024-02-14T07:10:38;7.45;;;3.78;;
16246;SDS011;8231;50.866;7.944;2024-02-14T07:13:06;2.80;;;2.60;;
16246;SDS011;8231;50.866;7.944;2024-02-14T07:15:35;4.15;;;3.08;;
16246;SDS011;8231;50.866;7.944;2024-02-14T07:18:05;5.88;;;4.15;;
16246;SDS011;8231;50.866;7.944;2024-02-14T07:20:35;3.90;;;3.58;;
16246;SDS011;8231;50.866;7.944;2024-02-14T07:23:03;3.20;;;3.00;;
16246;SDS011;8231;50.866;7.944;2024-02-14T07:25:32;4.28;;;3.88;;
16246;SDS011;8231;50.866;7.944;2024-02-14T07:28:00;5.95;;;4.35;;
16246;SDS011;8231;50.866;7.944;2024-02-14T07:30:28;4.85;;;3.97;;
16246;SDS011;8231;50.866;7.944;2024-02-14T07:32:56;4.47;;;3.72;;
16246;SDS011;8231;50.866;7.944;2024-02-14T07:35:26;6.57;;;4.25;;
16246;SDS011;8231;50.866;7.944;2024-02-14T07:37:55;4.57;;;3.83;;
16246;SDS011;8231;50.866;7.944;2024-02-14T07:40:23;4.55;;;4.15;;
16246;SDS011;8231;50.866;7.944;2024-02-14T07:43:06;4.10;;;3.70;;
16246;SDS011;8231;50.866;7.944;2024-02-14T07:45:34;4.28;;;3.60;;
16246;SDS011;8231;50.866;7.944;2024-02-14T07:48:03;5.03;;;3.92;;
16246;SDS011;8231;50.866;7.944;2024-02-14T07:50:33;4.93;;;3.53;;
16246;SDS011;8231;50.866;7.944;2024-02-14T07:53:01;5.43;;;3.88;;
16246;SDS011;8231;50.866;7.944;2024-02-14T07:55:30;4.07;;;3.50;;
16246;SDS011;8231;50.866;7.944;2024-02-14T07:57:58;4.20;;;3.80;;
16246;SDS011;8231;50.866;7.944;2024-02-14T08:00:27;3.80;;;3.28;;
16246;SDS011;8231;50.866;7.944;2024-02-14T08:02:55;2.97;;;2.75;;
16246;SDS011;8231;50.866;7.944;2024-02-14T08:05:23;5.07;;;4.72;;
16246;SDS011;8231;50.866;7.944;2024-02-14T08:07:53;3.75;;;3.40;;
16246;SDS011;8231;50.866;7.944;2024-02-14T08:10:21;4.43;;;3.17;;
16246;SDS011;8231;50.866;7.944;2024-02-14T08:12:49;4.00;;;3.00;;
16246;SDS011;8231;50.866;7.944;2024-02-14T08:15:17;6.03;;;3.22;;
16246;SDS011;8231;50.866;7.944;2024-02-14T08:17:46;3.60;;;3.30;;
16246;SDS011;8231;50.866;7.944;2024-02-14T08:23:13;3.53;;;3.05;;
16246;SDS011;8231;50.866;7.944;2024-02-14T08:25:42;3.20;;;2.65;;
16246;SDS011;8231;50.866;7.944;2024-02-14T08:28:10;2.53;;;2.33;;
16246;SDS011;8231;50.866;7.944;2024-02-14T08:30:39;3.00;;;2.55;;
16246;SDS011;8231;50.866;7.944;2024-02-14T08:33:07;2.78;;;2.35;;
16246;SDS011;8231;50.866;7.944;2024-02-14T08:35:37;3.28;;;2.58;;
16246;SDS011;8231;50.866;7.944;2024-02-14T08:38:09;3.35;;;2.97;;
16246;SDS011;8231;50.866;7.944;2024-02-14T08:40:39;3.25;;;2.17;;
16246;SDS011;8231;50.866;7.944;2024-02-14T08:43:07;2.85;;;2.30;;
16246;SDS011;8231;50.866;7.944;2024-02-14T08:45:36;2.58;;;2.38;;
16246;SDS011;8231;50.866;7.944;2024-02-14T08:48:06;2.35;;;2.15;;
16246;SDS011;8231;50.866;7.944;2024-02-14T08:50:34;2.92;;;2.28;;
16246;SDS011;8231;50.866;7.944;2024-02-14T08:53:03;3.97;;;2.42;;
16246;SDS011;8231;50.866;7.944;2024-02-14T08:55:31;3.30;;;2.85;;
16246;SDS011;8231;50.866;7.944;2024-02-14T08:58:02;2.60;;;2.40;;
16246;SDS011;8231;50.866;7.944;2024-02-14T09:00:30;3.25;;;2.08;;
16246;SDS011;8231;50.866;7.944;2024-02-14T09:03:02;2.67;;;1.77;;
16246;SDS011;8231;50.866;7.944;2024-02-14T09:05:31;1.80;;;1.70;;
16246;SDS011;8231;50.866;7.944;2024-02-14T09:08:00;2.60;;;1.85;;
16246;SDS011;8231;50.866;7.944;2024-02-14T09:10:28;2.22;;;1.73;;
16246;SDS011;8231;50.866;7.944;2024-02-14T09:12:56;3.05;;;1.58;;
16246;SDS011;8231;50.866;7.944;2024-02-14T09:15:27;2.83;;;1.80;;
16246;SDS011;8231;50.866;7.944;2024-02-14T09:17:57;1.83;;;1.50;;
16246;SDS011;8231;50.866;7.944;2024-02-14T09:20:26;2.05;;;1.50;;
16246;SDS011;8231;50.866;7.944;2024-02-14T09:22:55;2.63;;;1.60;;
16246;SDS011;8231;50.866;7.944;2024-02-14T09:25:24;3.03;;;1.42;;
16246;SDS011;8231;50.866;7.944;2024-02-14T09:27:52;1.50;;;1.40;;
16246;SDS011;8231;50.866;7.944;2024-02-14T09:30:20;2.28;;;1.75;;
16246;SDS011;8231;50.866;7.944;2024-02-14T09:33:05;2.05;;;1.70;;
16246;SDS011;8231;50.866;7.944;2024-02-14T09:35:33;2.47;;;1.65;;
16246;SDS011;8231;50.866;7.944;2024-02-14T09:38:04;2.10;;;1.70;;
16246;SDS011;8231;50.866;7.944;2024-02-14T09:40:32;1.67;;;1.48;;
16246;SDS011;8231;50.866;7.944;2024-02-14T09:43:01;1.30;;;1.20;;
16246;SDS011;8231;50.866;7.944;2024-02-14T09:45:32;2.20;;;1.58;;
16246;SDS011;8231;50.866;7.944;2024-02-14T09:48:01;1.58;;;1.33;;
16246;SDS011;8231;50.866;7.944;2024-02-14T09:50:32;1.58;;;1.30;;
16246;SDS011;8231;50.866;7.944;2024-02-14T09:53:01;1.25;;;1.13;;
16246;SDS011;8231;50.866;7.944;2024-02-14T09:55:31;3.20;;;1.75;;
16246;SDS011;8231;50.866;7.944;2024-02-14T09:58:01;2.22;;;1.85;;
16246;SDS011;8231;50.866;7.944;2024-02-14T10:00:33;2.67;;;1.25;;
16246;SDS011;8231;50.866;7.944;2024-02-14T10:03:03;3.88;;;1.50;;
16246;SDS011;8231;50.866;7.944;2024-02-14T10:05:33;2.75;;;1.38;;
16246;SDS011;8231;50.866;7.944;2024-02-14T10:08:02;2.25;;;1.75;;
16246;SDS011;8231;50.866;7.944;2024-02-14T10:10:31;1.55;;;1.35;;
16246;SDS011;8231;50.866;7.944;2024-02-14T10:13:03;2.40;;;1.30;;
16246;SDS011;8231;50.866;7.944;2024-02-14T10:15:32;1.73;;;1.42;;
16246;SDS011;8231;50.866;7.944;2024-02-14T10:18:00;3.22;;;1.63;;
16246;SDS011;8231;50.866;7.944;2024-02-14T10:20:30;1.33;;;1.23;;
16246;SDS011;8231;50.866;7.944;2024-02-14T10:23:02;1.50;;;1.25;;
16246;SDS011;8231;50.866;7.944;2024-02-14T10:25:31;1.83;;;1.38;;
16246;SDS011;8231;50.866;7.944;2024-02-14T10:28:03;1.60;;;1.45;;
16246;SDS011;8231;50.866;7.944;2024-02-14T10:30:35;1.85;;;1.38;;
16246;SDS011;8231;50.866;7.944;2024-02-14T10:33:04;1.88;;;1.65;;
16246;SDS011;8231;50.866;7.944;2024-02-14T10:35:49;2.85;;;1.42;;
16246;SDS011;8231;50.866;7.944;2024-02-14T10:38:24;1.58;;;1.20;;
16246;SDS011;8231;50.866;7.944;2024-02-14T10:40:53;1.45;;;1.10;;
16246;SDS011;8231;50.866;7.944;2024-02-14T10:43:22;1.92;;;1.40;;
16246;SDS011;8231;50.866;7.944;2024-02-14T10:45:51;1.33;;;1.23;;
16246;SDS011;8231;50.866;7.944;2024-02-14T10:48:22;1.88;;;1.10;;
16246;SDS011;8231;50.866;7.944;2024-02-14T10:50:53;1.38;;;1.15;;
16246;SDS011;8231;50.866;7.944;2024-02-14T10:53:26;1.58;;;1.00;;
16246;SDS011;8231;50.866;7.944;2024-02-14T10:55:59;1.52;;;1.30;;
16246;SDS011;8231;50.866;7.944;2024-02-14T10:58:29;1.00;;;0.90;;
16246;SDS011;8231;50.866;7.944;2024-02-14T11:01:00;1.40;;;1.00;;
16246;SDS011;8231;50.866;7.944;2024-02-14T11:03:29;1.33;;;0.95;;
16246;SDS011;8231;50.866;7.944;2024-02-14T11:06:00;3.45;;;1.00;;
16246;SDS011;8231;50.866;7.944;2024-02-14T11:08:33;1.45;;;1.08;;
16246;SDS011;8231;50.866;7.944;2024-02-14T11:11:02;1.30;;;0.95;;
16246;SDS011;8231;50.866;7.944;2024-02-14T11:13:32;1.50;;;1.02;;
16246;SDS011;8231;50.866;7.944;2024-02-14T11:16:03;1.85;;;1.05;;
16246;SDS011;8231;50.866;7.944;2024-02-14T11:18:34;1.70;;;1.10;;
16246;SDS011;8231;50.866;7.944;2024-02-14T11:21:03;2.42;;;1.05;;
16246;SDS011;8231;50.866;7.944;2024-02-14T11:23:33;1.23;;;1.08;;
16246;SDS011;8231;50.866;7.944;2024-02-14T11:26:03;1.50;;;1.20;;
16246;SDS011;8231;50.866;7.944;2024-02-14T11:28:36;1.67;;;1.10;;
16246;SDS011;8231;50.866;7.944;2024-02-14T11:31:07;0.88;;;0.80;;
16246;SDS011;8231;50.866;7.944;2024-02-14T11:33:36;3.65;;;1.10;;
16246;SDS011;8231;50.866;7.944;2024-02-14T11:36:07;1.70;;;1.20;;
16246;SDS011;8231;50.866;7.944;2024-02-14T11:38:39;1.27;;;1.17;;
16246;SDS011;8231;50.866;7.944;2024-02-14T11:41:10;1.95;;;1.02;;
16246;SDS011;8231;50.866;7.944;2024-02-14T11:43:38;1.90;;;0.90;;
16246;SDS011;8231;50.866;7.944;2024-02-14T11:46:07;2.28;;;1.27;;
16246;SDS011;8231;50.866;7.944;2024-02-14T11:48:36;3.90;;;1.60;;
16246;SDS011;8231;50.866;7.944;2024-02-14T11:51:07;1.10;;;1.00;;
16246;SDS011;8231;50.866;7.944;2024-02-14T11:53:36;2.25;;;1.25;;
16246;SDS011;8231;50.866;7.944;2024-02-14T11:56:07;1.48;;;1.20;;
16246;SDS011;8231;50.866;7.944;2024-02-14T11:58:35;2.08;;;1.13;;
16246;SDS011;8231;50.866;7.944;2024-02-14T12:01:04;1.67;;;0.80;;
16246;SDS011;8231;50.866;7.944;2024-02-14T12:03:33;2.90;;;1.35;;
16246;SDS011;8231;50.866;7.944;2024-02-14T12:06:04;0.95;;;0.90;;
16246;SDS011;8231;50.866;7.944;2024-02-14T12:08:33;1.48;;;1.38;;
16246;SDS011;8231;50.866;7.944;2024-02-14T12:11:03;1.90;;;1.20;;
16246;SDS011;8231;50.866;7.944;2024-02-14T12:13:32;2.78;;;1.35;;
16246;SDS011;8231;50.866;7.944;2024-02-14T12:16:04;2.88;;;0.90;;
16246;SDS011;8231;50.866;7.944;2024-02-14T12:18:35;1.75;;;1.13;;
16246;SDS011;8231;50.866;7.944;2024-02-14T12:21:03;3.33;;;1.10;;
16246;SDS011;8231;50.866;7.944;2024-02-14T12:23:34;1.13;;;0.95;;
16246;SDS011;8231;50.866;7.944;2024-02-14T12:26:05;1.52;;;0.90;;
16246;SDS011;8231;50.866;7.944;2024-02-14T12:28:34;1.20;;;1.10;;
16246;SDS011;8231;50.866;7.944;2024-02-14T12:31:03;2.15;;;1.08;;
16246;SDS011;8231;50.866;7.944;2024-02-14T12:33:32;1.52;;;1.10;;
16246;SDS011;8231;50.866;7.944;2024-02-14T12:36:01;2.25;;;1.30;;
16246;SDS011;8231;50.866;7.944;2024-02-14T12:38:30;2.42;;;1.13;;
16246;SDS011;8231;50.866;7.944;2024-02-14T12:40:59;1.48;;;1.30;;
16246;SDS011;8231;50.866;7.944;2024-02-14T12:43:29;1.45;;;1.20;;
16246;SDS011;8231;50.866;7.944;2024-02-14T12:45:58;3.40;;;1.40;;
16246;SDS011;8231;50.866;7.944;2024-02-14T12:48:26;2.60;;;1.20;;
16246;SDS011;8231;50.866;7.944;2024-02-14T12:50:55;1.73;;;1.45;;
16246;SDS011;8231;50.866;7.944;2024-02-14T12:53:24;4.43;;;1.25;;
16246;SDS011;8231;50.866;7.944;2024-02-14T12:55:53;1.40;;;1.05;;
16246;SDS011;8231;50.866;7.944;2024-02-14T12:58:20;1.85;;;1.33;;
16246;SDS011;8231;50.866;7.944;2024-02-14T13:00:50;1.38;;;0.95;;
16246;SDS011;8231;50.866;7.944;2024-02-14T13:03:18;3.60;;;1.15;;
16246;SDS011;8231;50.866;7.944;2024-02-14T13:05:47;1.20;;;1.10;;
16246;SDS011;8231;50.866;7.944;2024-02-14T13:08:16;2.70;;;1.33;;
16246;SDS011;8231;50.866;7.944;2024-02-14T13:10:44;2.28;;;1.20;;
16246;SDS011;8231;50.866;7.944;2024-02-14T13:13:13;1.45;;;1.35;;
16246;SDS011;8231;50.866;7.944;2024-02-14T13:15:41;4.20;;;1.20;;
16246;SDS011;8231;50.866;7.944;2024-02-14T13:18:13;2.80;;;0.98;;
16246;SDS011;8231;50.866;7.944;2024-02-14T13:20:42;2.10;;;0.70;;
16246;SDS011;8231;50.866;7.944;2024-02-14T13:23:11;1.33;;;1.00;;
16246;SDS011;8231;50.866;7.944;2024-02-14T13:25:41;2.13;;;1.00;;
16246;SDS011;8231;50.866;7.944;2024-02-14T13:28:09;1.77;;;0.90;;
16246;SDS011;8231;50.866;7.944;2024-02-14T13:30:37;1.10;;;1.00;;
16246;SDS011;8231;50.866;7.944;2024-02-14T13:33:06;1.33;;;1.08;;
16246;SDS011;8231;50.866;7.944;2024-02-14T13:35:37;1.42;;;1.00;;
16246;SDS011;8231;50.866;7.944;2024-02-14T13:38:06;3.15;;;1.67;;
16246;SDS011;8231;50.866;7.944;2024-02-14T13:40:36;2.60;;;1.20;;
16246;SDS011;8231;50.866;7.944;2024-02-14T13:43:04;2.97;;;1.52;;
16246;SDS011;8231;50.866;7.944;2024-02-14T13:45:39;1.77;;;1.20;;
16246;SDS011;8231;50.866;7.944;2024-02-14T13:48:09;1.33;;;1.23;;
16246;SDS011;8231;50.866;7.944;2024-02-14T13:50:40;1.35;;;1.25;;
16246;SDS011;8231;50.866;7.944;2024-02-14T13:53:09;1.40;;;1.30;;
16246;SDS011;8231;50.866;7.944;2024-02-14T13:55:38;1.42;;;1.20;;
16246;SDS011;8231;50.866;7.944;2024-02-14T13:58:07;1.95;;;1.05;;
16246;SDS011;8231;50.866;7.944;2024-02-14T14:00:41;2.28;;;1.40;;
16246;SDS011;8231;50.866;7.944;2024-02-14T14:03:10;1.40;;;1.30;;
16246;SDS011;8231;50.866;7.944;2024-02-14T14:05:40;1.23;;;1.13;;
16246;SDS011;8231;50.866;7.944;2024-02-14T14:08:09;2.78;;;1.40;;
16246;SDS011;8231;50.866;7.944;2024-02-14T14:10:37;2.92;;;1.50;;
16246;SDS011;8231;50.866;7.944;2024-02-14T14:13:05;1.40;;;1.30;;
16246;SDS011;8231;50.866;7.944;2024-02-14T14:15:34;1.77;;;1.50;;
16246;SDS011;8231;50.866;7.944;2024-02-14T14:18:03;1.48;;;1.33;;
16246;SDS011;8231;50.866;7.944;2024-02-14T14:20:31;1.60;;;1.42;;
16246;SDS011;8231;50.866;7.944;2024-02-14T14:23:01;1.55;;;1.45;;
16246;SDS011;8231;50.866;7.944;2024-02-14T14:25:29;3.38;;;1.63;;
16246;SDS011;8231;50.866;7.944;2024-02-14T14:27:58;1.52;;;1.42;;
16246;SDS011;8231;50.866;7.944;2024-02-14T14:30:26;2.60;;;1.30;;
16246;SDS011;8231;50.866;7.944;2024-02-14T14:32:55;1.50;;;1.40;;
16246;SDS011;8231;50.866;7.944;2024-02-14T14:35:23;1.30;;;1.20;;
16246;SDS011;8231;50.866;7.944;2024-02-14T14:37:51;1.73;;;1.40;;
16246;SDS011;8231;50.866;7.944;2024-02-14T14:40:22;2.03;;;1.92;;
16246;SDS011;8231;50.866;7.944;2024-02-14T14:42:51;3.33;;;3.03;;
16246;SDS011;8231;50.866;7.944;2024-02-14T14:45:20;3.35;;;2.97;;
16246;SDS011;8231;50.866;7.944;2024-02-14T14:47:48;2.40;;;2.20;;
16246;SDS011;8231;50.866;7.944;2024-02-14T14:50:15;1.75;;;1.65;;
16246;SDS011;8231;50.866;7.944;2024-02-14T14:52:44;1.80;;;1.70;;
16246;SDS011;8231;50.866;7.944;2024-02-14T14:55:12;1.80;;;1.65;;
16246;SDS011;8231;50.866;7.944;2024-02-14T14:57:42;1.85;;;1.75;;
16246;SDS011;8231;50.866;7.944;2024-02-14T15:00:11;1.70;;;1.60;;
16246;SDS011;8231;50.866;7.944;2024-02-14T15:02:40;2.45;;;2.22;;
16246;SDS011;8231;50.866;7.944;2024-02-14T15:05:10;2.47;;;2.35;;
16246;SDS011;8231;50.866;7.944;2024-02-14T15:07:39;2.67;;;2.47;;
16246;SDS011;8231;50.866;7.944;2024-02-14T15:10:08;3.30;;;3.00;;
16246;SDS011;8231;50.866;7.944;2024-02-14T15:12:36;2.85;;;2.65;;
16246;SDS011;8231;50.866;7.944;2024-02-14T15:15:06;3.85;;;3.55;;
16246;SDS011;8231;50.866;7.944;2024-02-14T15:17:37;2.88;;;2.30;;
16246;SDS011;8231;50.866;7.944;2024-02-14T15:20:06;3.28;;;2.97;;
16246;SDS011;8231;50.866;7.944;2024-02-14T15:22:35;2.30;;;2.10;;